createdAt,value
2023-04-27T00:00:39.193Z,99.90
2023-04-27T00:03:08.764Z,99.90
2023-04-27T00:05:39.395Z,99.90
2023-04-27T00:08:07.727Z,99.90
2023-04-27T00:10:36.358Z,99.90
2023-04-27T00:13:04.396Z,99.90
2023-04-27T00:15:32.641Z,99.90
2023-04-27T00:18:01.665Z,99.90
2023-04-27T00:20:32.047Z,99.90
2023-04-27T00:23:00.023Z,99.90
2023-04-27T00:25:28.143Z,99.90
2023-04-27T00:27:56.283Z,99.90
2023-04-27T00:30:26.139Z,99.90
2023-04-27T00:32:54.811Z,99.90
2023-04-27T00:35:23.334Z,99.90
2023-04-27T00:37:54.691Z,99.90
2023-04-27T00:40:22.992Z,99.90
2023-04-27T00:42:51.170Z,99.90
2023-04-27T00:45:19.273Z,99.90
2023-04-27T00:47:47.349Z,99.90
2023-04-27T00:50:16.235Z,99.90
2023-04-27T00:52:45.375Z,99.90
2023-04-27T00:55:14.802Z,99.90
2023-04-27T00:57:43.000Z,99.90
2023-04-27T01:00:13.288Z,99.90
2023-04-27T01:02:42.348Z,99.90
2023-04-27T01:05:11.055Z,99.90
2023-04-27T01:07:39.784Z,99.90
2023-04-27T01:10:08.980Z,99.90
2023-04-27T01:12:38.382Z,99.90
2023-04-27T01:15:08.451Z,99.90
2023-04-27T01:17:36.590Z,99.90
2023-04-27T01:20:10.511Z,99.90
2023-04-27T01:22:39.013Z,99.90
2023-04-27T01:25:09.658Z,99.90
2023-04-27T01:27:37.644Z,99.90
2023-04-27T01:30:06.781Z,99.90
2023-04-27T01:32:34.788Z,99.90
2023-04-27T01:35:03.006Z,99.90
2023-04-27T01:37:31.127Z,99.90
2023-04-27T01:39:59.141Z,99.90
2023-04-27T01:42:28.493Z,99.90
2023-04-27T01:44:56.661Z,99.90
2023-04-27T01:47:24.695Z,99.90
2023-04-27T01:49:52.692Z,99.90
2023-04-27T01:52:20.704Z,99.90
2023-04-27T01:54:48.769Z,99.90
2023-04-27T01:57:17.641Z,99.90
2023-04-27T01:59:46.967Z,99.90
2023-04-27T02:02:15.036Z,99.90
2023-04-27T02:04:45.249Z,99.90
2023-04-27T02:07:13.581Z,99.90
2023-04-27T02:09:41.780Z,99.90
2023-04-27T02:12:11.702Z,99.90
2023-04-27T02:14:39.782Z,99.90
2023-04-27T02:17:09.069Z,99.90
2023-04-27T02:19:37.378Z,99.90
2023-04-27T02:22:06.851Z,99.90
2023-04-27T02:24:36.760Z,99.90
2023-04-27T02:27:04.934Z,99.90
2023-04-27T02:29:33.438Z,99.90
2023-04-27T02:32:01.937Z,99.90
2023-04-27T02:34:31.264Z,99.90
2023-04-27T02:36:59.930Z,99.90
2023-04-27T02:39:27.897Z,99.90
2023-04-27T02:41:56.600Z,99.90
2023-04-27T02:44:24.700Z,99.90
2023-04-27T02:46:53.089Z,99.90
2023-04-27T02:49:23.358Z,99.90
2023-04-27T02:51:52.668Z,99.90
2023-04-27T02:54:20.956Z,99.90
2023-04-27T02:56:48.956Z,99.90
2023-04-27T02:59:17.024Z,99.90
2023-04-27T03:01:45.143Z,99.90
2023-04-27T03:04:15.167Z,99.90
2023-04-27T03:06:43.388Z,99.90
2023-04-27T03:09:13.361Z,99.90
2023-04-27T03:11:41.559Z,99.90
2023-04-27T03:14:09.579Z,99.90
2023-04-27T03:16:37.815Z,99.90
2023-04-27T03:19:06.261Z,99.90
2023-04-27T03:21:34.263Z,99.90
2023-04-27T03:24:02.985Z,99.90
2023-04-27T03:26:32.753Z,99.90
2023-04-27T03:29:00.959Z,99.90
2023-04-27T03:31:30.056Z,99.90
2023-04-27T03:33:58.248Z,99.90
2023-04-27T03:36:27.003Z,99.90
2023-04-27T03:38:55.048Z,99.90
2023-04-27T03:41:23.126Z,99.90
2023-04-27T03:43:53.479Z,99.90
2023-04-27T03:46:21.696Z,99.90
2023-04-27T03:48:50.440Z,99.90
2023-04-27T03:51:19.202Z,99.90
2023-04-27T03:53:48.204Z,99.90
2023-04-27T03:56:16.312Z,99.90
2023-04-27T03:58:44.314Z,99.90
2023-04-27T04:01:19.778Z,99.90
2023-04-27T04:03:48.608Z,99.90
2023-04-27T04:06:16.922Z,99.90
2023-04-27T04:08:46.785Z,99.90
2023-04-27T04:11:14.918Z,99.90
2023-04-27T04:13:44.143Z,99.90
2023-04-27T04:16:12.165Z,99.90
2023-04-27T04:18:42.018Z,99.90
2023-04-27T04:21:11.150Z,99.90
2023-04-27T04:23:41.169Z,99.90
2023-04-27T04:26:10.060Z,99.90
2023-04-27T04:28:38.951Z,99.90
2023-04-27T04:31:09.532Z,99.90
2023-04-27T04:33:37.641Z,99.90
2023-04-27T04:36:07.730Z,99.90
2023-04-27T04:38:35.862Z,99.90
2023-04-27T04:41:04.000Z,99.90
2023-04-27T04:43:34.391Z,99.90
2023-04-27T04:46:06.511Z,99.90
2023-04-27T04:48:35.626Z,99.90
2023-04-27T04:51:07.211Z,99.90
2023-04-27T04:53:36.014Z,99.90
2023-04-27T04:56:10.281Z,99.90
2023-04-27T04:58:38.406Z,99.90
2023-04-27T05:01:06.865Z,99.90
2023-04-27T05:03:36.052Z,99.90
2023-04-27T05:06:04.275Z,99.90
2023-04-27T05:08:33.648Z,99.90
2023-04-27T05:11:01.701Z,99.90
2023-04-27T05:13:29.760Z,99.90
2023-04-27T05:15:57.799Z,99.90
2023-04-27T05:18:25.836Z,99.90
2023-04-27T05:20:53.850Z,99.90
2023-04-27T05:23:21.870Z,99.90
2023-04-27T05:25:51.747Z,99.90
2023-04-27T05:28:19.824Z,99.90
2023-04-27T05:30:47.839Z,99.90
2023-04-27T05:33:16.112Z,99.90
2023-04-27T05:35:44.085Z,99.90
2023-04-27T05:38:15.073Z,99.90
2023-04-27T05:40:43.066Z,99.90
2023-04-27T05:43:12.568Z,99.90
2023-04-27T05:45:41.729Z,99.90
2023-04-27T05:48:09.798Z,99.90
2023-04-27T05:50:37.863Z,99.90
2023-04-27T05:53:06.081Z,99.90
2023-04-27T05:55:34.114Z,99.90
2023-04-27T05:58:08.732Z,99.90
2023-04-27T06:00:38.891Z,99.90
2023-04-27T06:03:07.170Z,99.90
2023-04-27T06:05:35.642Z,99.90
2023-04-27T06:08:03.813Z,99.90
2023-04-27T06:10:31.850Z,99.90
2023-04-27T06:12:59.877Z,99.90
2023-04-27T06:15:27.860Z,99.90
2023-04-27T06:17:57.333Z,99.90
2023-04-27T06:20:25.476Z,99.90
2023-04-27T06:22:53.472Z,99.90
2023-04-27T06:25:21.851Z,99.90
2023-04-27T06:27:50.770Z,99.90
2023-04-27T06:30:18.788Z,99.90
2023-04-27T06:32:47.006Z,99.90
2023-04-27T06:35:16.600Z,99.90
2023-04-27T06:37:45.174Z,99.90
2023-04-27T06:40:13.701Z,99.90
2023-04-27T06:42:41.677Z,99.90
2023-04-27T06:45:10.728Z,99.90
2023-04-27T06:47:38.808Z,99.90
2023-04-27T06:50:07.541Z,99.90
2023-04-27T06:52:36.843Z,99.90
2023-04-27T06:55:05.286Z,98.60
2023-04-27T06:57:33.237Z,97.80
2023-04-27T07:00:01.466Z,99.20
2023-04-27T07:02:29.473Z,99.40
2023-04-27T07:04:57.633Z,98.60
2023-04-27T07:07:25.836Z,98.20
2023-04-27T07:09:55.184Z,98.20
2023-04-27T07:12:23.207Z,99.10
2023-04-27T07:14:51.512Z,97.80
2023-04-27T07:17:20.169Z,96.70
2023-04-27T07:19:48.308Z,96.00
2023-04-27T07:22:16.616Z,95.40
2023-04-27T07:24:44.640Z,96.10
2023-04-27T07:27:15.074Z,96.00
2023-04-27T07:29:43.544Z,95.50
2023-04-27T07:32:11.597Z,94.60
2023-04-27T07:34:52.003Z,95.80
2023-04-27T07:37:21.187Z,94.90
2023-04-27T07:39:50.149Z,95.00
2023-04-27T07:42:19.812Z,94.20
2023-04-27T07:44:47.839Z,95.10
2023-04-27T07:47:15.862Z,96.00
2023-04-27T07:49:45.560Z,96.80
2023-04-27T07:52:14.129Z,95.20
2023-04-27T07:54:42.407Z,95.10
2023-04-27T07:57:11.641Z,95.00
2023-04-27T07:59:41.355Z,92.50
2023-04-27T08:02:18.999Z,90.60
2023-04-27T08:04:48.606Z,91.10
2023-04-27T08:07:17.724Z,92.20
2023-04-27T08:09:46.168Z,90.80
2023-04-27T08:12:14.164Z,92.00
2023-04-27T08:14:43.516Z,87.90
2023-04-27T08:17:11.878Z,86.40
2023-04-27T08:19:40.225Z,88.90
2023-04-27T08:22:08.614Z,92.00
2023-04-27T08:24:37.503Z,90.20
2023-04-27T08:27:06.906Z,88.80
2023-04-27T08:29:35.217Z,87.40
2023-04-27T08:32:05.753Z,85.40
2023-04-27T08:34:33.865Z,84.60
2023-04-27T08:37:03.323Z,82.90
2023-04-27T08:39:31.405Z,87.30
2023-04-27T08:41:59.581Z,83.90
2023-04-27T08:44:27.572Z,85.20
2023-04-27T08:46:55.561Z,85.40
2023-04-27T08:49:24.917Z,88.60
2023-04-27T08:51:52.883Z,87.70
2023-04-27T08:54:21.694Z,80.60
2023-04-27T08:56:49.735Z,85.00
2023-04-27T08:59:18.065Z,86.10
2023-04-27T09:01:48.667Z,82.10
2023-04-27T09:04:17.867Z,85.00
2023-04-27T09:06:49.061Z,85.00
2023-04-27T09:09:24.316Z,87.30
2023-04-27T09:11:52.379Z,85.30
2023-04-27T09:14:23.039Z,84.90
2023-04-27T09:17:00.530Z,85.50
2023-04-27T09:19:29.713Z,82.00
2023-04-27T09:22:07.311Z,78.70
2023-04-27T09:24:35.929Z,84.10
2023-04-27T09:27:05.031Z,80.80
2023-04-27T09:29:35.944Z,81.30
2023-04-27T09:32:16.683Z,83.60
2023-04-27T09:34:45.418Z,85.20
2023-04-27T09:37:15.810Z,87.00
2023-04-27T09:39:44.254Z,80.60
2023-04-27T09:42:13.436Z,84.60
2023-04-27T09:44:41.460Z,82.90
2023-04-27T09:47:10.423Z,82.30
2023-04-27T09:49:38.917Z,79.80
2023-04-27T09:52:07.161Z,79.00
2023-04-27T09:54:38.026Z,79.10
2023-04-27T09:57:18.450Z,77.40
2023-04-27T10:00:02.971Z,75.70
2023-04-27T10:02:52.501Z,79.50
2023-04-27T10:05:42.835Z,83.50
2023-04-27T10:08:11.871Z,83.00
2023-04-27T10:10:50.818Z,80.10
2023-04-27T10:13:23.823Z,82.60
2023-04-27T10:15:52.574Z,83.10
2023-04-27T10:18:28.552Z,85.00
2023-04-27T10:21:11.197Z,85.60
2023-04-27T10:23:48.430Z,85.00
2023-04-27T10:26:24.954Z,83.00
2023-04-27T10:29:05.478Z,78.90
2023-04-27T10:31:35.202Z,81.50
2023-04-27T10:34:08.505Z,80.90
2023-04-27T10:36:37.779Z,79.10
2023-04-27T10:39:17.010Z,81.40
2023-04-27T10:41:54.117Z,76.30
2023-04-27T10:44:28.386Z,79.00
2023-04-27T10:46:59.618Z,78.30
2023-04-27T10:49:29.298Z,81.40
2023-04-27T10:51:59.877Z,79.90
2023-04-27T10:54:29.289Z,78.70
2023-04-27T10:57:05.844Z,78.20
2023-04-27T10:59:34.930Z,79.20
2023-04-27T11:02:04.151Z,82.60
2023-04-27T11:04:42.387Z,81.20
2023-04-27T11:07:12.426Z,80.00
2023-04-27T11:09:43.442Z,78.80
2023-04-27T11:12:14.651Z,78.90
2023-04-27T11:14:42.752Z,78.40
2023-04-27T11:17:11.771Z,82.00
2023-04-27T11:19:47.347Z,83.40
2023-04-27T11:22:17.810Z,81.60
2023-04-27T11:24:50.660Z,79.00
2023-04-27T11:27:22.342Z,77.80
2023-04-27T11:29:50.459Z,76.10
2023-04-27T11:32:21.835Z,75.70
2023-04-27T11:34:54.766Z,76.30
2023-04-27T11:37:25.476Z,81.60
2023-04-27T11:39:54.249Z,78.10
2023-04-27T11:42:25.433Z,78.60
2023-04-27T11:44:55.089Z,76.10
2023-04-27T11:47:23.588Z,80.30
2023-04-27T11:49:52.895Z,78.60
2023-04-27T11:52:20.930Z,79.40
2023-04-27T11:54:50.265Z,77.00
2023-04-27T11:57:18.891Z,77.70
2023-04-27T11:59:48.274Z,75.70
2023-04-27T12:02:17.087Z,77.30
2023-04-27T12:04:45.514Z,79.20
2023-04-27T12:07:13.687Z,79.00
2023-04-27T12:09:42.068Z,81.30
2023-04-27T12:12:10.585Z,82.10
2023-04-27T12:14:38.718Z,78.40
2023-04-27T12:17:08.245Z,75.10
2023-04-27T12:19:37.250Z,77.70
2023-04-27T12:22:05.703Z,78.30
2023-04-27T12:24:33.889Z,80.00
2023-04-27T12:27:03.301Z,78.50
2023-04-27T12:29:32.202Z,79.10
2023-04-27T12:32:00.884Z,80.00
2023-04-27T12:34:30.353Z,72.40
2023-04-27T12:36:58.464Z,76.60
2023-04-27T12:39:26.810Z,81.10
2023-04-27T12:41:55.547Z,77.20
2023-04-27T12:44:23.623Z,77.00
2023-04-27T12:46:51.999Z,75.80
2023-04-27T12:49:20.246Z,81.50
2023-04-27T12:51:51.923Z,80.80
2023-04-27T12:54:20.226Z,82.20
2023-04-27T12:56:48.337Z,79.30
2023-04-27T12:59:17.034Z,79.70
2023-04-27T13:01:45.875Z,77.60
2023-04-27T13:04:20.649Z,76.70
2023-04-27T13:06:50.832Z,76.60
2023-04-27T13:09:19.115Z,76.10
2023-04-27T13:11:47.287Z,75.40
2023-04-27T13:14:15.750Z,77.20
2023-04-27T13:16:44.130Z,75.80
2023-04-27T13:19:12.284Z,77.50
2023-04-27T13:21:40.573Z,79.10
2023-04-27T13:24:10.541Z,77.60
2023-04-27T13:26:38.814Z,81.10
2023-04-27T13:29:06.846Z,72.70
2023-04-27T13:31:35.008Z,77.90
2023-04-27T13:34:04.783Z,75.40
2023-04-27T13:36:32.834Z,77.70
2023-04-27T13:39:01.949Z,77.30
2023-04-27T13:41:32.276Z,76.90
2023-04-27T13:44:00.772Z,78.70
2023-04-27T13:46:28.818Z,77.00
2023-04-27T13:48:57.226Z,77.60
2023-04-27T13:51:26.618Z,77.10
2023-04-27T13:53:54.587Z,79.50
2023-04-27T13:56:22.674Z,76.60
2023-04-27T13:58:52.172Z,75.70
2023-04-27T14:01:20.268Z,76.80
2023-04-27T14:03:48.525Z,77.10
2023-04-27T14:06:16.725Z,74.60
2023-04-27T14:08:44.676Z,78.00
2023-04-27T14:11:14.195Z,77.30
2023-04-27T14:13:42.239Z,75.90
2023-04-27T14:16:11.738Z,76.20
2023-04-27T14:18:39.787Z,77.90
2023-04-27T14:21:07.861Z,75.60
2023-04-27T14:23:36.008Z,76.30
2023-04-27T14:26:05.073Z,74.70
2023-04-27T14:28:33.071Z,75.80
2023-04-27T14:31:01.370Z,75.10
2023-04-27T14:33:31.761Z,77.00
2023-04-27T14:36:00.286Z,79.40
2023-04-27T14:38:28.417Z,75.40
2023-04-27T14:40:56.568Z,76.40
2023-04-27T14:43:24.820Z,78.50
2023-04-27T14:45:59.370Z,78.30
2023-04-27T14:48:34.498Z,78.20
2023-04-27T14:51:03.043Z,78.70
2023-04-27T14:53:31.112Z,79.80
2023-04-27T14:55:59.111Z,79.30
2023-04-27T14:58:27.546Z,78.50
2023-04-27T15:00:55.630Z,78.90
2023-04-27T15:03:23.855Z,79.20
2023-04-27T15:05:53.322Z,78.40
2023-04-27T15:08:21.412Z,78.80
2023-04-27T15:10:49.572Z,78.40
2023-04-27T15:13:17.734Z,78.90
2023-04-27T15:15:46.103Z,78.70
2023-04-27T15:18:14.211Z,79.30
2023-04-27T15:20:43.614Z,80.50
2023-04-27T15:23:13.918Z,79.40
2023-04-27T15:25:43.924Z,77.80
2023-04-27T15:28:11.929Z,80.20
2023-04-27T15:30:40.004Z,79.40
2023-04-27T15:33:10.127Z,79.60
2023-04-27T15:35:40.233Z,79.50
2023-04-27T15:38:10.276Z,78.50
2023-04-27T15:40:40.410Z,77.90
2023-04-27T15:43:08.619Z,80.80
2023-04-27T15:45:36.621Z,76.80
2023-04-27T15:48:06.715Z,78.10
2023-04-27T15:50:34.863Z,77.80
2023-04-27T15:53:02.803Z,79.40
2023-04-27T15:55:30.962Z,80.40
2023-04-27T15:58:00.361Z,78.90
2023-04-27T16:00:28.791Z,80.70
2023-04-27T16:02:57.070Z,81.60
2023-04-27T16:05:25.183Z,81.20
2023-04-27T16:07:53.489Z,80.10
2023-04-27T16:10:21.502Z,79.70
2023-04-27T16:12:50.276Z,80.20
2023-04-27T16:15:19.890Z,80.00
2023-04-27T16:17:48.057Z,80.70
2023-04-27T16:20:16.338Z,81.80
2023-04-27T16:22:44.379Z,82.10
2023-04-27T16:25:12.484Z,82.00
2023-04-27T16:27:40.901Z,81.90
2023-04-27T16:30:10.199Z,81.70
2023-04-27T16:32:40.630Z,82.00
2023-04-27T16:35:09.552Z,82.20
2023-04-27T16:37:38.273Z,82.40
2023-04-27T16:40:08.382Z,82.70
2023-04-27T16:42:36.533Z,82.80
2023-04-27T16:45:05.034Z,83.00
2023-04-27T16:47:33.702Z,83.00
2023-04-27T16:50:03.195Z,82.40
2023-04-27T16:52:31.680Z,83.90
2023-04-27T16:54:59.736Z,83.90
2023-04-27T16:57:27.910Z,85.40
2023-04-27T16:59:56.476Z,86.10
2023-04-27T17:02:25.851Z,86.40
2023-04-27T17:04:54.832Z,86.90
2023-04-27T17:07:25.499Z,86.80
2023-04-27T17:09:54.240Z,87.10
2023-04-27T17:12:22.608Z,87.30
2023-04-27T17:14:52.209Z,86.90
2023-04-27T17:17:20.430Z,87.80
2023-04-27T17:19:48.580Z,87.90
2023-04-27T17:22:16.631Z,88.10
2023-04-27T17:24:46.302Z,88.50
2023-04-27T17:27:14.360Z,88.90
2023-04-27T17:29:42.498Z,88.80
2023-04-27T17:32:10.799Z,88.70
2023-04-27T17:34:40.408Z,89.10
2023-04-27T17:37:10.511Z,89.70
2023-04-27T17:39:38.856Z,89.60
2023-04-27T17:42:12.675Z,89.80
2023-04-27T17:44:42.405Z,89.70
2023-04-27T17:47:11.013Z,89.70
2023-04-27T17:49:39.102Z,90.00
2023-04-27T17:52:07.383Z,90.30
2023-04-27T17:54:35.550Z,90.30
2023-04-27T17:57:03.959Z,90.20
2023-04-27T17:59:33.566Z,90.60
2023-04-27T18:02:01.649Z,90.70
2023-04-27T18:04:30.195Z,91.10
2023-04-27T18:06:58.464Z,91.30
2023-04-27T18:09:28.456Z,91.50
2023-04-27T18:11:57.515Z,91.90
2023-04-27T18:14:25.635Z,91.90
2023-04-27T18:16:55.274Z,92.20
2023-04-27T18:19:24.693Z,92.20
2023-04-27T18:21:52.719Z,92.40
2023-04-27T18:24:21.039Z,92.50
2023-04-27T18:26:49.480Z,92.70
2023-04-27T18:29:17.712Z,93.20
2023-04-27T18:31:46.302Z,93.70
2023-04-27T18:34:16.053Z,94.00
2023-04-27T18:36:45.743Z,94.00
2023-04-27T18:39:14.222Z,94.00
2023-04-27T18:41:42.678Z,94.30
2023-04-27T18:44:10.990Z,94.50
2023-04-27T18:46:39.006Z,95.10
2023-04-27T18:49:07.399Z,95.80
2023-04-27T18:51:36.834Z,96.20
2023-04-27T18:56:35.416Z,97.10
2023-04-27T18:59:03.636Z,97.90
2023-04-27T19:01:33.400Z,98.50
2023-04-27T19:04:02.258Z,98.60
2023-04-27T19:06:31.323Z,99.20
2023-04-27T19:09:01.238Z,99.70
2023-04-27T19:11:30.402Z,99.90
2023-04-27T19:13:58.746Z,99.90
2023-04-27T19:16:27.101Z,99.90
2023-04-27T19:18:55.340Z,99.90
2023-04-27T19:21:23.659Z,99.90
2023-04-27T19:23:52.282Z,99.90
2023-04-27T19:26:22.413Z,99.90
2023-04-27T19:28:50.500Z,99.90
2023-04-27T19:31:18.803Z,99.90
2023-04-27T19:33:54.737Z,99.90
2023-04-27T19:36:24.076Z,99.90
2023-04-27T19:38:53.164Z,99.90
2023-04-27T19:41:22.558Z,99.90
2023-04-27T19:43:50.630Z,99.90
2023-04-27T19:46:18.714Z,99.90
2023-04-27T19:48:46.751Z,99.90
2023-04-27T19:51:15.059Z,99.90
2023-04-27T19:53:43.086Z,99.90
2023-04-27T19:56:11.078Z,99.90
2023-04-27T19:58:41.692Z,99.90
2023-04-27T20:01:12.321Z,99.90
2023-04-27T20:03:41.624Z,99.90
2023-04-27T20:06:10.478Z,99.90
2023-04-27T20:08:38.638Z,99.90
2023-04-27T20:11:07.828Z,99.90
2023-04-27T20:13:35.856Z,99.90
2023-04-27T20:16:05.480Z,99.90
2023-04-27T20:18:33.833Z,99.90
2023-04-27T20:21:01.923Z,99.90
2023-04-27T20:23:30.586Z,99.90
2023-04-27T20:25:58.636Z,99.90
2023-04-27T20:28:28.047Z,99.90
2023-04-27T20:30:57.895Z,99.90
2023-04-27T20:33:27.270Z,99.90
2023-04-27T20:36:03.525Z,99.90
2023-04-27T20:38:34.682Z,99.90
2023-04-27T20:41:03.687Z,99.90
2023-04-27T20:43:32.682Z,99.90
2023-04-27T20:46:00.826Z,99.90
2023-04-27T20:48:30.262Z,99.90
2023-04-27T20:50:58.307Z,99.90
2023-04-27T20:53:27.056Z,99.90
2023-04-27T20:55:55.104Z,99.90
2023-04-27T20:58:23.575Z,99.90
2023-04-27T21:00:53.043Z,99.90
2023-04-27T21:03:21.293Z,99.90
2023-04-27T21:05:51.985Z,99.90
2023-04-27T21:08:20.092Z,99.90
2023-04-27T21:10:48.255Z,99.90
2023-04-27T21:13:16.295Z,99.90
2023-04-27T21:15:44.484Z,99.90
2023-04-27T21:18:19.179Z,99.90
2023-04-27T21:20:58.386Z,99.90
2023-04-27T21:23:26.739Z,99.90
2023-04-27T21:25:55.091Z,99.90
2023-04-27T21:28:23.212Z,99.90
2023-04-27T21:30:51.402Z,99.90
2023-04-27T21:33:19.518Z,99.90
2023-04-27T21:35:47.554Z,99.90
2023-04-27T21:38:17.605Z,99.90
2023-04-27T21:40:45.885Z,99.90
2023-04-27T21:43:13.969Z,99.90
2023-04-27T21:45:42.040Z,99.90
2023-04-27T21:48:10.236Z,99.90
2023-04-27T21:50:38.339Z,99.90
2023-04-27T21:53:06.461Z,99.90
2023-04-27T21:55:35.835Z,99.90
2023-04-27T21:58:03.953Z,99.90
2023-04-27T22:00:32.179Z,99.90
2023-04-27T22:03:00.688Z,99.90
2023-04-27T22:05:29.383Z,99.90
2023-04-27T22:07:58.220Z,99.90
2023-04-27T22:10:26.317Z,99.90
2023-04-27T22:12:56.916Z,99.90
2023-04-27T22:15:26.557Z,99.90
2023-04-27T22:17:55.927Z,99.90
2023-04-27T22:20:24.779Z,99.90
2023-04-27T22:22:52.944Z,99.90
2023-04-27T22:25:21.747Z,99.90
2023-04-27T22:27:50.105Z,99.90
2023-04-27T22:30:19.565Z,99.90
2023-04-27T22:32:47.723Z,99.90
2023-04-27T22:35:25.514Z,99.90
2023-04-27T22:37:55.748Z,99.90
2023-04-27T22:40:24.331Z,99.90
2023-04-27T22:42:52.567Z,99.90
2023-04-27T22:45:22.138Z,99.90
2023-04-27T22:47:50.456Z,99.90
2023-04-27T22:50:18.662Z,99.90
2023-04-27T22:52:46.847Z,99.90
2023-04-27T22:55:15.003Z,99.90
2023-04-27T22:57:43.283Z,99.90
2023-04-27T23:00:12.511Z,99.90
2023-04-27T23:02:42.364Z,99.90
2023-04-27T23:05:12.365Z,99.90
2023-04-27T23:07:42.940Z,99.90
2023-04-27T23:10:12.980Z,99.90
2023-04-27T23:12:41.636Z,99.90
2023-04-27T23:15:10.243Z,99.90
2023-04-27T23:17:38.479Z,99.90
2023-04-27T23:20:24.114Z,99.90
2023-04-27T23:22:55.201Z,99.90
2023-04-27T23:25:23.313Z,99.90
2023-04-27T23:27:52.579Z,99.90
2023-04-27T23:30:21.761Z,99.90
2023-04-27T23:32:50.028Z,99.90
2023-04-27T23:35:19.416Z,99.90
2023-04-27T23:37:47.488Z,99.90
2023-04-27T23:40:15.706Z,99.90
2023-04-27T23:42:43.684Z,99.90
2023-04-27T23:45:12.526Z,99.90
2023-04-27T23:47:40.813Z,99.90
2023-04-27T23:50:09.550Z,99.90
2023-04-27T23:52:38.931Z,99.90
2023-04-27T23:55:08.232Z,99.90
2023-04-27T23:57:36.235Z,99.90
